Time;durP1;ratioP1;P1;durP2;ratioP2;P2;SDS_P1;SDS_P2;PMS_P1;PMS_P2;Temp;Humidity;BMP_temperature;BMP_pressure;BME280_temperature;BME280_humidity;BME280_pressure;Samples;Min_cycle;Max_cycle;Signal;HPM_P1;HPM_P2
2021/12/29 00:00:27;;;;;;;14.65;7.93;;;;;;;6.81;100.00;97738.22;4951458;28;20037;-87
2021/12/29 00:02:55;;;;;;;14.98;8.27;;;;;;;6.81;100.00;97738.22;4956116;28;20038;-86
2021/12/29 00:05:22;;;;;;;10.85;6.80;;;;;;;6.78;100.00;97730.78;4986479;28;20059;-87
2021/12/29 00:07:48;;;;;;;14.68;7.22;;;;;;;6.67;100.00;97732.16;4941382;28;20038;-87
2021/12/29 00:10:15;;;;;;;11.45;6.18;;;;;;;6.68;100.00;97744.25;4957465;28;20029;-86
2021/12/29 00:12:46;;;;;;;17.98;7.78;;;;;;;6.73;100.00;97730.56;4959548;28;20030;-87
2021/12/29 00:15:15;;;;;;;13.95;6.53;;;;;;;6.82;100.00;97734.59;4944024;28;20037;-87
2021/12/29 00:17:43;;;;;;;12.32;6.47;;;;;;;6.79;100.00;97729.78;4945511;28;20113;-86
2021/12/29 00:20:11;;;;;;;10.80;6.10;;;;;;;6.70;100.00;97716.16;4945527;28;20047;-84
2021/12/29 00:22:37;;;;;;;11.57;6.80;;;;;;;6.53;100.00;97697.50;4946974;28;20052;-87
2021/12/29 00:25:06;;;;;;;11.32;7.68;;;;;;;6.47;100.00;97705.31;4987158;28;20027;-87
2021/12/29 00:27:32;;;;;;;19.55;7.40;;;;;;;6.47;100.00;97694.88;4961402;28;20031;-87
2021/12/29 00:29:57;;;;;;;12.73;7.22;;;;;;;6.28;100.00;97695.50;4961249;28;20081;-87
2021/12/29 00:32:23;;;;;;;13.98;7.68;;;;;;;6.25;100.00;97702.91;4962677;28;20034;-86
2021/12/29 00:34:49;;;;;;;15.30;8.27;;;;;;;6.29;100.00;97735.41;4963950;28;20033;-87
2021/12/29 00:37:17;;;;;;;13.23;8.43;;;;;;;6.23;100.00;97749.19;4964359;28;20026;-86
2021/12/29 00:39:43;;;;;;;21.42;11.23;;;;;;;6.11;100.00;97739.38;4992549;28;20041;-85
2021/12/29 00:42:09;;;;;;;23.15;12.73;;;;;;;6.10;100.00;97753.41;4945099;28;20042;-86
2021/12/29 00:44:35;;;;;;;22.60;12.90;;;;;;;6.06;100.00;97754.78;4962006;28;20057;-86
2021/12/29 00:47:01;;;;;;;23.65;16.30;;;;;;;6.14;100.00;97749.41;4985327;28;20030;-87
2021/12/29 00:49:32;;;;;;;27.65;16.85;;;;;;;6.24;100.00;97748.19;4961254;28;20450;-86
2021/12/29 00:51:58;;;;;;;28.63;17.20;;;;;;;6.28;100.00;97759.81;4962401;28;20058;-87
2021/12/29 00:54:24;;;;;;;34.40;18.70;;;;;;;6.18;100.00;97759.41;4963755;28;20077;-88
2021/12/29 00:56:50;;;;;;;30.20;17.90;;;;;;;6.14;100.00;97764.22;4945351;28;20382;-86
2021/12/29 00:59:19;;;;;;;28.63;18.08;;;;;;;5.99;100.00;97777.38;4978114;28;21578;-86
2021/12/29 01:01:48;;;;;;;27.42;18.27;;;;;;;5.78;100.00;97758.28;4983714;28;20077;-85
2021/12/29 01:04:14;;;;;;;29.60;18.88;;;;;;;5.80;100.00;97769.31;4943087;28;20034;-86
2021/12/29 01:06:40;;;;;;;32.17;18.55;;;;;;;5.69;100.00;97762.03;4977949;28;20082;-87
2021/12/29 01:09:06;;;;;;;29.27;18.38;;;;;;;5.69;100.00;97772.44;4982921;28;20113;-87
2021/12/29 01:11:32;;;;;;;33.30;18.25;;;;;;;5.64;100.00;97786.06;4944527;28;20039;-86
2021/12/29 01:13:57;;;;;;;26.50;15.80;;;;;;;5.48;100.00;97771.56;4942409;28;20025;-87
2021/12/29 01:19:00;;;;;;;27.20;16.20;;;;;;;5.39;100.00;97763.09;4962870;28;20063;-86
2021/12/29 01:21:26;;;;;;;25.40;16.60;;;;;;;5.29;100.00;97758.25;4961269;28;20033;-88
2021/12/29 01:23:52;;;;;;;26.73;15.93;;;;;;;5.26;100.00;97763.84;4960128;28;20066;-85
2021/12/29 01:26:18;;;;;;;28.98;16.17;;;;;;;5.19;100.00;97768.22;4942904;28;20031;-88
2021/12/29 01:28:44;;;;;;;27.10;16.42;;;;;;;5.17;100.00;97765.00;4948632;28;20050;-84
2021/12/29 01:31:09;;;;;;;25.88;15.65;;;;;;;5.20;100.00;97763.78;4942370;28;20034;-84
2021/12/29 01:33:35;;;;;;;26.55;15.50;;;;;;;5.22;100.00;97767.81;4959251;28;20030;-86
2021/12/29 01:36:01;;;;;;;29.40;17.23;;;;;;;5.23;100.00;97764.22;4987584;28;20030;-84
2021/12/29 01:38:27;;;;;;;29.25;16.90;;;;;;;5.21;100.00;97755.00;4956623;28;20397;-84
2021/12/29 01:40:53;;;;;;;28.17;16.63;;;;;;;5.12;100.00;97751.78;4982067;28;20034;-84
2021/12/29 01:43:20;;;;;;;26.30;15.90;;;;;;;5.10;100.00;97759.75;4941315;28;20043;-84
2021/12/29 01:45:46;;;;;;;27.25;15.02;;;;;;;4.99;100.00;97753.28;4964120;28;20412;-84
2021/12/29 01:48:12;;;;;;;27.35;17.23;;;;;;;5.00;100.00;97762.69;4945376;28;20481;-85
2021/12/29 01:50:39;;;;;;;31.90;19.23;;;;;;;5.07;100.00;97764.53;4957669;28;20073;-87
2021/12/29 01:53:09;;;;;;;33.92;19.20;;;;;;;4.99;100.00;97758.47;4960523;28;20026;-85
2021/12/29 01:55:37;;;;;;;33.53;20.80;;;;;;;4.92;100.00;97762.84;4942586;28;20031;-85
2021/12/29 01:58:03;;;;;;;35.35;20.52;;;;;;;4.91;100.00;97758.63;4941929;28;20026;-86
2021/12/29 02:00:32;;;;;;;33.15;20.15;;;;;;;4.80;100.00;97749.53;4960229;28;20042;-86
2021/12/29 02:02:57;;;;;;;34.47;20.58;;;;;;;4.83;100.00;97758.75;4958491;28;20027;-87
2021/12/29 02:05:23;;;;;;;33.53;19.90;;;;;;;4.76;100.00;97765.72;4959484;28;20131;-88
2021/12/29 02:07:49;;;;;;;31.83;19.20;;;;;;;4.72;100.00;97765.28;4959838;28;20397;-86
2021/12/29 02:10:17;;;;;;;30.98;19.58;;;;;;;4.69;100.00;97763.84;4942879;28;20038;-87
2021/12/29 02:12:43;;;;;;;37.63;21.10;;;;;;;4.62;100.00;97750.00;4961689;28;20389;-86
2021/12/29 02:15:10;;;;;;;37.67;20.15;;;;;;;4.69;100.00;97752.66;4959606;28;20027;-88
2021/12/29 02:17:36;;;;;;;36.63;20.45;;;;;;;4.76;100.00;97743.13;4941297;28;20133;-89
2021/12/29 02:20:09;;;;;;;34.60;19.52;;;;;;;4.80;100.00;97738.34;4959337;28;20027;-86
2021/12/29 02:22:42;;;;;;;32.97;19.67;;;;;;;4.73;100.00;97738.28;4958961;28;20037;-86
2021/12/29 02:25:31;;;;;;;34.65;18.27;;;;;;;4.71;100.00;97728.06;4975762;28;20031;-87
2021/12/29 02:28:00;;;;;;;33.55;18.17;;;;;;;4.56;100.00;97719.59;4949280;28;20027;-87
2021/12/29 02:30:26;;;;;;;34.55;19.10;;;;;;;4.73;100.00;97740.91;4942660;28;20477;-87
2021/12/29 02:32:59;;;;;;;34.10;18.38;;;;;;;4.76;100.00;97739.72;4959715;28;20031;-89
2021/12/29 02:35:25;;;;;;;29.45;16.63;;;;;;;4.75;100.00;97740.72;4959703;28;20373;-85
2021/12/29 02:37:51;;;;;;;30.85;15.70;;;;;;;4.65;100.00;97723.66;4974151;28;20023;-86
2021/12/29 02:40:17;;;;;;;31.50;15.85;;;;;;;4.71;100.00;97720.28;4943816;28;20050;-88
2021/12/29 02:42:43;;;;;;;28.83;15.68;;;;;;;4.65;100.00;97722.84;4949172;28;20053;-87
2021/12/29 02:45:13;;;;;;;30.15;14.43;;;;;;;4.63;100.00;97725.63;4984270;28;20456;-87
2021/12/29 02:47:39;;;;;;;25.10;12.98;;;;;;;4.54;100.00;97718.97;4944366;28;20057;-86
2021/12/29 02:50:05;;;;;;;26.08;12.65;;;;;;;4.42;100.00;97722.06;4944989;28;20497;-86
2021/12/29 02:52:31;;;;;;;18.60;12.32;;;;;;;4.36;100.00;97716.81;4960473;28;20511;-89
2021/12/29 02:54:56;;;;;;;23.38;12.45;;;;;;;4.31;100.00;97730.34;4984399;28;20031;-88
2021/12/29 02:57:22;;;;;;;21.05;12.30;;;;;;;4.23;100.00;97717.50;4944831;28;20022;-88
2021/12/29 02:59:48;;;;;;;21.80;11.90;;;;;;;4.30;100.00;97728.75;4962976;28;20038;-88
2021/12/29 03:02:13;;;;;;;26.33;13.15;;;;;;;4.42;100.00;97742.03;4961252;28;20390;-88
2021/12/29 03:04:39;;;;;;;28.85;13.63;;;;;;;4.40;100.00;97728.44;4959570;28;20027;-87
2021/12/29 03:07:05;;;;;;;28.58;13.38;;;;;;;4.42;100.00;97732.47;4944641;28;20049;-86
2021/12/29 03:09:30;;;;;;;26.27;12.57;;;;;;;4.51;100.00;97738.34;4958099;28;20023;-86
2021/12/29 03:11:57;;;;;;;26.75;12.23;;;;;;;4.61;100.00;97745.81;4945437;28;20030;-87
2021/12/29 03:14:25;;;;;;;25.13;12.50;;;;;;;4.65;100.00;97734.03;4944228;28;20084;-87
2021/12/29 03:16:51;;;;;;;27.50;12.63;;;;;;;4.70;100.00;97728.28;4959296;28;20038;-86
2021/12/29 03:19:17;;;;;;;24.05;12.68;;;;;;;4.74;100.00;97726.13;4959257;28;20505;-87
2021/12/29 03:21:44;;;;;;;24.40;12.77;;;;;;;4.66;100.00;97707.06;4944229;28;20049;-89
2021/12/29 03:24:11;;;;;;;20.80;12.13;;;;;;;4.77;100.00;97712.75;4962737;28;20030;-86
2021/12/29 03:26:37;;;;;;;24.33;12.52;;;;;;;4.83;100.00;97714.56;4967889;28;20039;-85
2021/12/29 03:29:06;;;;;;;24.27;13.48;;;;;;;4.86;100.00;97712.41;4962053;28;20038;-86
2021/12/29 03:31:33;;;;;;;23.88;12.40;;;;;;;4.91;100.00;97709.22;4959025;28;20054;-86
2021/12/29 03:34:00;;;;;;;22.90;11.63;;;;;;;4.95;100.00;97705.25;4959123;28;20026;-87
2021/12/29 03:36:28;;;;;;;24.58;12.23;;;;;;;4.99;100.00;97705.66;4981650;28;20030;-86
2021/12/29 03:38:54;;;;;;;24.42;12.00;;;;;;;4.96;100.00;97688.66;4983403;28;20027;-86
2021/12/29 03:41:20;;;;;;;22.58;11.95;;;;;;;5.03;100.00;97670.50;4983008;28;20038;-84
2021/12/29 03:43:47;;;;;;;28.35;12.00;;;;;;;5.03;100.00;97669.69;4942110;28;20130;-85
2021/12/29 03:46:14;;;;;;;24.45;12.30;;;;;;;5.10;100.00;97670.50;4957642;28;20023;-85
2021/12/29 03:48:41;;;;;;;26.30;12.45;;;;;;;5.12;100.00;97668.53;4959335;28;20030;-85
2021/12/29 03:51:07;;;;;;;23.35;12.48;;;;;;;5.09;100.00;97672.31;4945300;28;20031;-84
2021/12/29 03:53:34;;;;;;;19.05;11.93;;;;;;;4.77;100.00;97684.13;4962573;28;20030;-86
2021/12/29 03:56:00;;;;;;;28.25;12.20;;;;;;;4.50;100.00;97686.53;4959993;28;20030;-86
2021/12/29 03:58:27;;;;;;;23.70;12.98;;;;;;;4.47;100.00;97692.13;4983141;28;20039;-85
2021/12/29 04:00:58;;;;;;;21.25;12.32;;;;;;;4.56;100.00;97704.00;4961811;28;20022;-86
2021/12/29 04:03:26;;;;;;;21.60;12.48;;;;;;;4.56;100.00;97701.41;4963967;28;20042;-88
2021/12/29 04:05:53;;;;;;;23.05;11.68;;;;;;;4.58;100.00;97707.22;4947443;28;20033;-89
2021/12/29 04:08:21;;;;;;;19.30;11.73;;;;;;;4.65;100.00;97710.66;4966612;28;20046;-89
2021/12/29 04:10:47;;;;;;;23.38;12.23;;;;;;;4.68;100.00;97702.47;4965192;28;20026;-88
2021/12/29 04:13:14;;;;;;;21.58;11.35;;;;;;;4.68;100.00;97684.28;4983158;28;20038;-87
2021/12/29 04:15:39;;;;;;;18.15;11.38;;;;;;;4.74;100.00;97684.53;4969233;28;20026;-88
2021/12/29 04:18:15;;;;;;;21.30;11.60;;;;;;;4.66;100.00;97675.88;4964598;28;20074;-88
2021/12/29 04:20:57;;;;;;;22.77;10.93;;;;;;;4.63;100.00;97671.06;4946477;28;20034;-88
2021/12/29 04:23:34;;;;;;;21.27;11.35;;;;;;;4.64;100.00;97674.47;4962461;28;20034;-86
2021/12/29 04:26:04;;;;;;;18.88;10.85;;;;;;;4.61;100.00;97665.25;4961565;28;20037;-88
2021/12/29 04:28:30;;;;;;;17.10;10.18;;;;;;;4.59;100.00;97669.81;4945695;28;20540;-87
2021/12/29 04:30:59;;;;;;;17.60;10.70;;;;;;;4.58;100.00;97673.41;4946470;28;20077;-87
2021/12/29 04:33:27;;;;;;;16.40;10.35;;;;;;;4.57;100.00;97671.81;4985663;28;20027;-87
2021/12/29 04:35:53;;;;;;;20.25;11.18;;;;;;;4.47;100.00;97666.94;4948888;28;20113;-87
2021/12/29 04:38:21;;;;;;;20.38;11.30;;;;;;;4.38;100.00;97665.47;4960528;28;20670;-85
2021/12/29 04:40:50;;;;;;;24.15;12.48;;;;;;;4.43;100.00;97661.31;4985240;28;20053;-86
2021/12/29 04:43:17;;;;;;;18.48;10.90;;;;;;;4.47;100.00;97660.94;4959747;28;20038;-86
2021/12/29 04:45:43;;;;;;;20.52;12.00;;;;;;;4.38;100.00;97653.28;4960615;28;20030;-86
2021/12/29 04:48:13;;;;;;;21.45;11.55;;;;;;;4.43;100.00;97648.31;4960821;28;20058;-84
2021/12/29 04:50:40;;;;;;;19.10;11.38;;;;;;;4.51;100.00;97647.38;4958157;28;20374;-86
2021/12/29 04:53:08;;;;;;;18.42;10.95;;;;;;;4.46;100.00;97641.16;4960208;28;20026;-85
2021/12/29 04:55:34;;;;;;;23.80;13.10;;;;;;;4.38;100.00;97634.28;4960705;28;20034;-86
2021/12/29 04:58:00;;;;;;;20.42;11.75;;;;;;;4.40;100.00;97640.09;4963139;28;20042;-87
2021/12/29 05:00:28;;;;;;;22.10;12.18;;;;;;;4.47;100.00;97635.78;4963701;28;20027;-86
2021/12/29 05:02:55;;;;;;;20.23;12.27;;;;;;;4.41;100.00;97616.53;4976856;28;20488;-87
2021/12/29 05:05:38;;;;;;;21.88;11.77;;;;;;;4.48;100.00;97626.97;4965824;28;20030;-87
2021/12/29 05:10:50;;;;;;;24.27;11.82;;;;;;;5.18;100.00;97610.53;4990396;28;20054;-87
2021/12/29 05:13:17;;;;;;;22.05;12.23;;;;;;;5.22;100.00;97601.34;4944445;28;20059;-87
2021/12/29 05:15:43;;;;;;;22.65;12.30;;;;;;;4.69;100.00;97601.91;4962563;28;20113;-87
2021/12/29 05:18:11;;;;;;;22.27;12.68;;;;;;;4.42;100.00;97584.38;4964104;28;20062;-87
2021/12/29 05:20:39;;;;;;;21.77;12.60;;;;;;;4.40;100.00;97595.94;4965510;28;20045;-87
2021/12/29 05:23:05;;;;;;;20.52;12.65;;;;;;;4.45;100.00;97595.38;4968378;28;20034;-87
2021/12/29 05:25:31;;;;;;;24.90;13.93;;;;;;;4.39;100.00;97600.34;4989295;28;20037;-89
2021/12/29 05:27:57;;;;;;;29.70;13.52;;;;;;;4.39;100.00;97597.75;4988340;28;20118;-87
2021/12/29 05:30:23;;;;;;;26.98;14.48;;;;;;;4.36;100.00;97595.53;4950906;28;20117;-88
2021/12/29 05:32:49;;;;;;;27.67;14.93;;;;;;;4.35;100.00;97596.53;4952051;28;20027;-88
2021/12/29 05:35:16;;;;;;;23.73;13.52;;;;;;;4.33;100.00;97585.53;4950358;28;20105;-88
2021/12/29 05:37:42;;;;;;;27.90;15.80;;;;;;;4.32;100.00;97576.09;4952829;28;20509;-88
2021/12/29 05:40:08;;;;;;;28.85;15.82;;;;;;;4.28;100.00;97580.06;4946949;28;20026;-86
2021/12/29 05:42:35;;;;;;;23.35;13.15;;;;;;;4.37;100.00;97591.94;4945362;28;20458;-87
2021/12/29 05:45:07;;;;;;;27.45;15.40;;;;;;;4.30;100.00;97588.47;4959634;28;20477;-87
2021/12/29 05:47:33;;;;;;;26.52;14.93;;;;;;;4.42;100.00;97602.56;4958992;28;20033;-84
2021/12/29 05:49:59;;;;;;;25.85;15.32;;;;;;;4.46;100.00;97591.78;4944558;28;20035;-84
2021/12/29 05:52:25;;;;;;;25.02;14.90;;;;;;;4.36;100.00;97573.94;4985706;28;20026;-84
2021/12/29 05:54:51;;;;;;;27.77;15.75;;;;;;;4.52;100.00;97581.44;4987583;28;20030;-84
2021/12/29 05:57:17;;;;;;;30.08;15.85;;;;;;;4.46;100.00;97569.22;4961500;28;20121;-83
2021/12/29 05:59:43;;;;;;;27.80;15.45;;;;;;;4.57;100.00;97579.06;4975877;28;20473;-84
2021/12/29 06:02:09;;;;;;;31.27;16.15;;;;;;;4.58;100.00;97565.06;4957615;28;20031;-88
2021/12/29 06:04:34;;;;;;;31.08;16.40;;;;;;;4.57;100.00;97554.88;4942351;28;20133;-87
2021/12/29 06:07:00;;;;;;;34.38;17.67;;;;;;;4.57;100.00;97549.69;4942811;28;20037;-85
2021/12/29 06:09:25;;;;;;;29.00;16.95;;;;;;;4.62;100.00;97555.09;4976160;28;20113;-86
2021/12/29 06:11:51;;;;;;;32.75;17.98;;;;;;;4.65;100.00;97546.91;4958593;28;20035;-86
2021/12/29 06:14:17;;;;;;;38.22;19.88;;;;;;;4.74;100.00;97546.75;4977846;28;20419;-89
2021/12/29 06:16:42;;;;;;;38.97;20.48;;;;;;;4.66;100.00;97534.72;4959203;28;20070;-87
2021/12/29 06:19:10;;;;;;;38.38;20.45;;;;;;;4.69;100.00;97536.94;4960135;28;20125;-88
2021/12/29 06:21:36;;;;;;;39.10;20.85;;;;;;;4.76;100.00;97529.16;4961735;28;20044;-90
2021/12/29 06:24:02;;;;;;;35.97;20.08;;;;;;;4.79;100.00;97521.75;4961482;28;20034;-87
2021/12/29 06:26:28;;;;;;;38.30;20.70;;;;;;;4.78;100.00;97519.38;4962214;28;20555;-88
2021/12/29 06:28:53;;;;;;;38.60;21.67;;;;;;;4.72;100.00;97513.16;4965411;28;20035;-85
2021/12/29 06:31:19;;;;;;;41.13;22.80;;;;;;;4.71;100.00;97517.53;4983611;28;20064;-88
2021/12/29 06:33:46;;;;;;;40.17;20.70;;;;;;;4.63;100.00;97503.94;4985935;28;20034;-86
2021/12/29 06:36:12;;;;;;;39.72;20.05;;;;;;;4.62;100.00;97508.31;4988172;28;20059;-86
2021/12/29 06:38:37;;;;;;;39.13;21.58;;;;;;;4.71;100.00;97517.53;4996821;28;20532;-92
2021/12/29 06:41:03;;;;;;;37.10;21.17;;;;;;;4.67;100.00;97505.91;4972548;28;20089;-88
2021/12/29 06:43:29;;;;;;;44.08;23.00;;;;;;;4.75;100.00;97506.78;4952866;28;20042;-90
2021/12/29 06:45:55;;;;;;;44.50;22.98;;;;;;;4.75;100.00;97494.56;4968813;28;20030;-87
2021/12/29 06:48:20;;;;;;;40.65;21.67;;;;;;;4.84;100.00;97493.41;4951820;28;20085;-88
2021/12/29 06:50:47;;;;;;;40.35;23.70;;;;;;;4.94;100.00;97493.03;4948566;28;20031;-88
2021/12/29 06:53:13;;;;;;;44.10;22.67;;;;;;;4.80;100.00;97465.38;4968389;28;20496;-90
2021/12/29 06:55:39;;;;;;;35.88;20.05;;;;;;;5.04;100.00;97492.66;4969487;28;20046;-89
2021/12/29 06:58:05;;;;;;;43.80;23.05;;;;;;;5.05;100.00;97490.84;4946565;28;20078;-89
2021/12/29 07:00:32;;;;;;;49.45;24.40;;;;;;;4.95;100.00;97484.22;4962773;28;20054;-88
2021/12/29 07:02:59;;;;;;;45.63;24.92;;;;;;;5.09;100.00;97490.25;4960683;28;20035;-85
2021/12/29 07:05:25;;;;;;;52.22;25.85;;;;;;;5.10;100.00;97484.06;4969108;28;20113;-89
2021/12/29 07:07:52;;;;;;;48.50;24.38;;;;;;;5.15;100.00;97476.44;4966190;28;20042;-88
2021/12/29 07:10:18;;;;;;;51.00;25.48;;;;;;;5.12;100.00;97474.25;4950942;28;20054;-88
2021/12/29 07:12:43;;;;;;;50.88;25.05;;;;;;;5.18;100.00;97475.25;4952260;28;20034;-87
2021/12/29 07:15:12;;;;;;;50.72;25.80;;;;;;;5.07;100.00;97452.44;4958621;28;20035;-89
2021/12/29 07:17:38;;;;;;;47.85;24.38;;;;;;;5.23;100.00;97459.84;4971496;28;20030;-89
2021/12/29 07:20:05;;;;;;;40.78;23.88;;;;;;;5.20;100.00;97457.66;5006894;28;20051;-88
2021/12/29 07:22:30;;;;;;;44.97;23.55;;;;;;;5.17;100.00;97452.03;4979383;28;20031;-87
2021/12/29 07:24:56;;;;;;;49.25;22.70;;;;;;;5.22;100.00;97457.47;4957653;28;20034;-85
2021/12/29 07:27:21;;;;;;;49.42;25.23;;;;;;;5.24;100.00;97452.88;4947938;28;20094;-87
2021/12/29 07:29:47;;;;;;;45.42;24.48;;;;;;;5.14;100.00;97441.03;4952364;28;20049;-89
2021/12/29 07:32:12;;;;;;;53.63;25.80;;;;;;;5.24;100.00;97430.25;4969741;28;20030;-87
2021/12/29 07:34:38;;;;;;;45.70;21.17;;;;;;;5.22;100.00;97411.44;4965961;28;20031;-87
2021/12/29 07:37:04;;;;;;;44.08;21.48;;;;;;;5.27;100.00;97401.22;4950275;28;20034;-88
2021/12/29 07:39:29;;;;;;;53.72;24.95;;;;;;;5.18;100.00;97366.00;4992191;28;20157;-88
2021/12/29 07:41:55;;;;;;;40.42;20.70;;;;;;;5.23;100.00;97362.81;4966090;28;20038;-89
2021/12/29 07:44:25;;;;;;;40.75;19.10;;;;;;;5.30;100.00;97358.41;4964093;28;20034;-90
2021/12/29 07:46:54;;;;;;;35.97;18.77;;;;;;;5.35;100.00;97360.41;4990033;28;20121;-89
2021/12/29 07:49:21;;;;;;;34.35;18.75;;;;;;;5.31;100.00;97343.59;4969640;28;20033;-90
2021/12/29 07:51:47;;;;;;;47.20;21.00;;;;;;;5.34;100.00;97358.81;4973663;28;20034;-90
2021/12/29 07:54:14;;;;;;;39.05;18.77;;;;;;;5.28;100.00;97358.59;4972167;28;20129;-88
2021/12/29 07:56:43;;;;;;;40.88;18.38;;;;;;;5.31;100.00;97349.59;4967172;28;20047;-89
2021/12/29 07:59:10;;;;;;;44.28;18.48;;;;;;;5.26;100.00;97339.00;4968409;28;20037;-88
2021/12/29 08:01:36;;;;;;;47.85;19.13;;;;;;;5.32;100.00;97332.97;4966718;28;20030;-89
2021/12/29 08:04:02;;;;;;;49.53;19.25;;;;;;;5.33;100.00;97331.19;4965409;28;20030;-88
2021/12/29 08:06:27;;;;;;;38.35;20.58;;;;;;;5.19;100.00;97305.19;4950682;28;20129;-87
2021/12/29 08:08:54;;;;;;;50.47;18.88;;;;;;;5.11;100.00;97328.78;4968480;28;20073;-89
2021/12/29 08:11:21;;;;;;;44.63;20.08;;;;;;;5.08;100.00;97304.00;4967226;28;20063;-89
2021/12/29 08:13:48;;;;;;;45.20;19.30;;;;;;;5.23;100.00;97316.78;4957307;28;20023;-91
2021/12/29 08:16:15;;;;;;;34.97;19.27;;;;;;;5.18;100.00;97293.19;4962535;28;20046;-91
2021/12/29 08:19:03;;;;;;;52.20;23.63;;;;;;;5.22;100.00;97267.56;4963138;28;20031;-91
2021/12/29 08:22:17;;;;;;;39.97;18.25;;;;;;;5.32;100.00;97287.97;4934888;28;20236;-88
2021/12/29 08:25:22;;;;;;;93.70;23.38;;;;;;;5.33;100.00;97294.75;4979873;28;20027;-90
2021/12/29 08:27:47;;;;;;;92.28;23.77;;;;;;;5.17;100.00;97265.56;4957573;28;20042;-88
2021/12/29 08:30:14;;;;;;;81.63;22.23;;;;;;;5.21;100.00;97271.16;4952493;28;20061;-88
2021/12/29 08:32:40;;;;;;;36.28;18.48;;;;;;;5.26;100.00;97282.56;4956428;28;20106;-90
2021/12/29 08:35:06;;;;;;;88.70;22.15;;;;;;;5.20;100.00;97275.56;4958119;28;20034;-90
2021/12/29 08:37:32;;;;;;;140.20;24.77;;;;;;;5.32;100.00;97286.16;4979186;28;20037;-89
2021/12/29 08:39:58;;;;;;;39.38;21.25;;;;;;;5.43;100.00;97279.50;4958701;28;20038;-87
2021/12/29 08:42:27;;;;;;;76.85;21.63;;;;;;;5.37;100.00;97259.53;4963572;28;20035;-90
2021/12/29 08:44:52;;;;;;;56.20;21.00;;;;;;;5.39;100.00;97278.31;4977354;28;20042;-87
2021/12/29 08:47:18;;;;;;;94.13;21.77;;;;;;;5.36;100.00;97268.34;4967256;28;20033;-88
2021/12/29 08:49:44;;;;;;;60.97;21.25;;;;;;;5.49;100.00;97283.09;4950572;28;20070;-87
2021/12/29 08:52:09;;;;;;;133.05;27.17;;;;;;;5.30;100.00;97262.13;4963720;28;20042;-88
2021/12/29 08:54:37;;;;;;;45.58;18.90;;;;;;;5.53;100.00;97290.31;4964800;28;20532;-88
2021/12/29 08:57:03;;;;;;;57.95;19.52;;;;;;;5.48;100.00;97277.09;4962077;28;20031;-86
2021/12/29 08:59:29;;;;;;;42.55;20.23;;;;;;;5.40;100.00;97238.28;4964457;28;20455;-87
2021/12/29 09:01:55;;;;;;;48.08;19.55;;;;;;;5.46;100.00;97247.88;4946815;28;20393;-87
2021/12/29 09:04:21;;;;;;;84.20;25.33;;;;;;;5.47;100.00;97243.47;4987042;28;20393;-86
2021/12/29 09:06:47;;;;;;;32.80;17.90;;;;;;;5.52;100.00;97241.06;4961506;28;20034;-84
2021/12/29 09:09:13;;;;;;;34.00;17.95;;;;;;;5.55;100.00;97238.84;4946746;28;20038;-87
2021/12/29 09:11:39;;;;;;;38.10;20.35;;;;;;;5.58;100.00;97215.00;4989425;28;20037;-87
2021/12/29 09:14:05;;;;;;;56.22;22.67;;;;;;;5.68;100.00;97227.56;4966402;28;20485;-86
2021/12/29 09:16:31;;;;;;;35.30;20.20;;;;;;;5.76;100.00;97210.09;4980347;28;20050;-88
2021/12/29 09:18:57;;;;;;;43.88;18.02;;;;;;;5.74;100.00;97212.94;4951049;28;20919;-87
2021/12/29 09:21:26;;;;;;;95.32;24.42;;;;;;;5.80;100.00;97201.69;4957317;28;20043;-85
2021/12/29 09:23:53;;;;;;;29.85;16.52;;;;;;;5.83;100.00;97193.44;4944508;28;20041;-87
2021/12/29 09:26:18;;;;;;;149.95;24.88;;;;;;;5.67;100.00;97170.50;4954448;28;20045;-85
2021/12/29 09:28:47;;;;;;;31.67;16.65;;;;;;;5.70;100.00;97167.50;4952380;28;20045;-90
2021/12/29 09:31:14;;;;;;;34.80;15.48;;;;;;;5.81;100.00;97161.63;4979668;28;20409;-88
2021/12/29 09:33:41;;;;;;;34.10;16.17;;;;;;;5.88;100.00;97142.53;4968820;28;20030;-87
2021/12/29 09:36:07;;;;;;;32.33;14.98;;;;;;;6.03;100.00;97157.91;4952411;28;20401;-87
2021/12/29 09:38:35;;;;;;;39.38;16.88;;;;;;;6.08;100.00;97158.84;4952424;28;20034;-89
2021/12/29 09:41:04;;;;;;;25.63;14.13;;;;;;;6.04;100.00;97134.25;4973815;28;20030;-88
2021/12/29 09:43:30;;;;;;;23.77;13.50;;;;;;;6.26;100.00;97170.34;4960767;28;20027;-88
2021/12/29 09:45:56;;;;;;;27.42;14.85;;;;;;;6.26;100.00;97185.97;4969548;28;20049;-87
2021/12/29 09:48:22;;;;;;;26.23;14.30;;;;;;;6.17;100.00;97166.41;4968626;28;20108;-86
2021/12/29 09:50:49;;;;;;;30.92;16.17;;;;;;;6.31;100.00;97186.16;4946753;28;20076;-87
2021/12/29 09:53:16;;;;;;;26.13;14.85;;;;;;;6.39;100.00;97172.06;4946490;28;20496;-86
2021/12/29 09:55:44;;;;;;;27.10;14.63;;;;;;;6.35;100.00;97140.41;4962967;28;20111;-86
2021/12/29 09:58:10;;;;;;;36.80;15.52;;;;;;;6.47;100.00;97145.72;4945736;28;20042;-87
2021/12/29 10:00:59;;;;;;;23.02;11.38;;;;;;;6.57;100.00;97145.22;4953279;28;20038;-85
2021/12/29 10:03:27;;;;;;;18.10;10.30;;;;;;;6.60;100.00;97136.19;4949477;28;20043;-89
2021/12/29 10:05:58;;;;;;;17.63;11.05;;;;;;;6.66;100.00;97124.88;4969370;28;20045;-88
2021/12/29 10:08:28;;;;;;;20.83;10.35;;;;;;;6.83;100.00;97115.47;4949172;28;20122;-85
2021/12/29 10:11:01;;;;;;;14.43;9.13;;;;;;;6.79;100.00;97123.94;4960984;28;20034;-87
2021/12/29 10:13:29;;;;;;;10.20;5.43;;;;;;;6.85;100.00;97095.19;4960741;28;20026;-86
2021/12/29 10:16:05;;;;;;;7.68;5.35;;;;;;;6.90;100.00;97097.16;4966928;28;20320;-87
2021/12/29 10:18:33;;;;;;;6.38;3.85;;;;;;;6.95;100.00;97071.19;4970505;28;20055;-86
2021/12/29 10:21:09;;;;;;;3.53;3.15;;;;;;;7.13;100.00;97082.63;4946850;28;20494;-87
2021/12/29 10:23:37;;;;;;;3.00;2.58;;;;;;;7.20;100.00;97078.09;4949841;28;20034;-89
2021/12/29 10:26:14;;;;;;;4.55;2.45;;;;;;;7.27;100.00;97063.19;4950343;28;20031;-87
2021/12/29 10:28:43;;;;;;;3.47;2.63;;;;;;;7.49;100.00;97080.94;4965353;28;20035;-87
2021/12/29 10:31:13;;;;;;;3.55;2.33;;;;;;;7.47;100.00;97056.88;4946254;29;20038;-89
2021/12/29 10:33:47;;;;;;;5.32;2.20;;;;;;;7.54;100.00;97052.34;4946744;28;20416;-88
2021/12/29 10:36:16;;;;;;;3.50;2.45;;;;;;;7.39;100.00;97023.25;4949750;28;20066;-87
2021/12/29 10:38:44;;;;;;;3.47;2.45;;;;;;;7.64;100.00;97043.16;4949977;28;20133;-87
2021/12/29 10:41:10;;;;;;;4.00;2.72;;;;;;;7.61;100.00;97041.00;4955596;28;20080;-88
2021/12/29 10:43:38;;;;;;;3.35;2.80;;;;;;;7.81;100.00;97072.81;4956934;28;20027;-88
2021/12/29 10:46:33;;;;;;;5.80;3.10;;;;;;;7.80;100.00;97050.34;4963497;28;20039;-89
2021/12/29 10:49:06;;;;;;;4.50;3.40;;;;;;;7.77;100.00;97040.34;4965007;28;20046;-89
2021/12/29 10:51:38;;;;;;;4.15;3.30;;;;;;;7.56;100.00;97012.94;4982324;28;20038;-88
2021/12/29 10:54:12;;;;;;;4.03;2.95;;;;;;;7.75;100.00;97026.72;4959107;28;20058;-89
2021/12/29 10:56:41;;;;;;;5.30;3.55;;;;;;;7.61;100.00;97014.88;4960319;28;20050;-90
2021/12/29 10:59:20;;;;;;;3.47;2.90;;;;;;;7.88;100.00;97041.38;4959572;28;20527;-90
2021/12/29 11:01:55;;;;;;;3.67;3.08;;;;;;;7.97;100.00;97039.22;4960921;28;20046;-91
2021/12/29 11:04:24;;;;;;;3.83;2.75;;;;;;;8.04;100.00;97023.44;4941019;29;20059;-90
2021/12/29 11:06:51;;;;;;;3.50;2.95;;;;;;;8.10;100.00;97017.28;4954005;28;20042;-88
2021/12/29 11:09:32;;;;;;;3.67;2.92;;;;;;;8.15;100.00;96986.84;4977337;28;20045;-88
2021/12/29 11:11:59;;;;;;;3.90;3.13;;;;;;;8.34;100.00;96994.53;4962151;28;20039;-88
2021/12/29 11:14:31;;;;;;;4.15;2.95;;;;;;;8.36;100.00;96997.72;4951688;28;20103;-88
2021/12/29 11:17:04;;;;;;;5.40;3.05;;;;;;;8.56;100.00;97005.22;4952287;28;20038;-89
2021/12/29 11:19:31;;;;;;;3.85;3.08;;;;;;;8.65;100.00;96989.97;4971477;28;20038;-88
2021/12/29 11:22:12;;;;;;;69.05;7.50;;;;;;;8.69;100.00;96993.69;4973716;28;20026;-87
2021/12/29 11:24:39;;;;;;;5.32;3.70;;;;;;;8.78;100.00;97001.97;4966544;28;20039;-88
2021/12/29 11:27:14;;;;;;;8.02;5.10;;;;;;;8.77;100.00;96978.63;4967637;28;20026;-87